createdAt,value
2023-02-22T00:06:05.052Z,96.77
2023-02-22T00:16:26.735Z,96.66
2023-02-22T00:26:49.454Z,96.80
2023-02-22T00:37:11.004Z,96.06
2023-02-22T00:47:32.518Z,95.82
2023-02-22T00:57:55.366Z,95.58
2023-02-22T01:08:17.336Z,95.69
2023-02-22T01:18:38.744Z,96.08
2023-02-22T01:29:00.104Z,96.30
2023-02-22T01:39:21.463Z,96.02
2023-02-22T01:49:46.457Z,96.19
2023-02-22T02:00:10.193Z,96.35
2023-02-22T02:10:32.015Z,96.32
2023-02-22T02:20:53.370Z,95.86
2023-02-22T02:31:33.588Z,96.31
2023-02-22T02:41:56.546Z,96.40
2023-02-22T02:52:20.719Z,96.28
2023-02-22T03:02:42.108Z,95.97
2023-02-22T03:13:10.189Z,96.46
2023-02-22T03:23:35.244Z,96.30
2023-02-22T03:34:00.806Z,95.84
2023-02-22T03:44:25.753Z,96.27
2023-02-22T03:54:47.172Z,95.65
2023-02-22T04:05:08.829Z,95.18
2023-02-22T04:15:30.181Z,95.46
2023-02-22T04:25:51.551Z,95.82
2023-02-22T04:36:15.962Z,94.58
2023-02-22T04:46:37.449Z,95.26
2023-02-22T04:56:58.803Z,95.14
2023-02-22T05:07:20.333Z,94.71
2023-02-22T05:17:41.727Z,94.82
2023-02-22T05:28:04.918Z,95.04
2023-02-22T05:38:26.259Z,94.83
2023-02-22T05:48:47.662Z,94.26
2023-02-22T05:59:09.046Z,95.04
2023-02-22T06:09:30.400Z,94.15
2023-02-22T06:19:51.797Z,94.80
2023-02-22T06:30:14.831Z,94.73
2023-02-22T06:40:37.022Z,94.40
2023-02-22T06:50:58.439Z,94.40
2023-02-22T07:01:20.027Z,94.42
2023-02-22T07:11:41.573Z,94.85
2023-02-22T07:22:02.939Z,94.80
2023-02-22T07:32:24.384Z,94.73
2023-02-22T07:42:51.980Z,94.48
2023-02-22T07:53:15.363Z,94.28
2023-02-22T08:03:37.919Z,93.83
2023-02-22T08:13:59.405Z,93.27
2023-02-22T08:24:20.740Z,93.65
2023-02-22T08:34:42.518Z,92.98
2023-02-22T08:45:04.004Z,91.34
2023-02-22T08:55:26.436Z,91.86
2023-02-22T09:05:47.981Z,91.28
2023-02-22T09:16:11.521Z,91.00
2023-02-22T09:26:33.257Z,90.10
2023-02-22T09:36:55.191Z,90.08
2023-02-22T09:47:21.894Z,86.62
2023-02-22T09:57:43.983Z,88.36
2023-02-22T10:08:10.283Z,87.75
2023-02-22T10:18:50.067Z,87.06
2023-02-22T10:29:19.064Z,87.38
2023-02-22T10:39:42.028Z,87.44
2023-02-22T10:50:04.261Z,86.67
2023-02-22T11:00:37.161Z,86.14
2023-02-22T11:11:04.755Z,85.26
2023-02-22T11:21:26.167Z,84.32
2023-02-22T11:31:49.306Z,84.98
2023-02-22T11:42:21.350Z,84.24
2023-02-22T11:52:44.840Z,84.02
2023-02-22T12:03:09.280Z,84.09
2023-02-22T12:13:30.928Z,84.02
2023-02-22T12:24:04.592Z,84.54
2023-02-22T12:34:41.935Z,84.01
2023-02-22T12:45:08.317Z,84.64
2023-02-22T12:55:56.272Z,83.74
2023-02-22T13:06:24.634Z,83.97
2023-02-22T13:16:52.697Z,83.76
2023-02-22T13:27:19.353Z,84.01
2023-02-22T13:37:53.024Z,83.59
2023-02-22T13:48:17.620Z,83.32
2023-02-22T13:58:53.622Z,83.28
2023-02-22T14:09:33.929Z,83.42
2023-02-22T14:20:04.297Z,83.79
2023-02-22T14:30:27.589Z,83.36
2023-02-22T14:40:51.229Z,83.47
2023-02-22T14:51:31.580Z,83.06
2023-02-22T15:02:11.878Z,83.74
2023-02-22T15:12:33.735Z,83.87
2023-02-22T15:22:59.773Z,84.78
2023-02-22T15:33:24.401Z,84.97
2023-02-22T15:43:57.312Z,85.08
2023-02-22T15:54:27.106Z,84.69
2023-02-22T16:04:59.332Z,86.33
2023-02-22T16:15:21.240Z,86.23
2023-02-22T16:25:42.592Z,86.72
2023-02-22T16:36:05.282Z,87.18
2023-02-22T16:46:26.732Z,87.40
2023-02-22T16:56:48.164Z,87.74
2023-02-22T17:07:10.017Z,88.27
2023-02-22T17:17:32.685Z,88.19
2023-02-22T17:27:54.184Z,88.33
2023-02-22T17:38:18.728Z,88.29
2023-02-22T17:48:40.177Z,89.00
2023-02-22T17:59:01.731Z,89.38
2023-02-22T18:09:23.405Z,89.39
2023-02-22T18:19:44.866Z,89.27
2023-02-22T18:30:06.465Z,89.06
2023-02-22T18:40:27.847Z,89.78
2023-02-22T18:50:49.237Z,89.79
2023-02-22T19:01:14.702Z,89.52
2023-02-22T19:11:36.549Z,90.19
2023-02-22T19:21:57.918Z,88.94
2023-02-22T19:32:19.494Z,89.71
2023-02-22T19:42:40.918Z,90.36
2023-02-22T19:53:05.888Z,90.76
2023-02-22T20:03:28.356Z,90.63
2023-02-22T20:13:49.839Z,90.51
2023-02-22T20:24:14.823Z,90.98
2023-02-22T20:34:36.287Z,90.54
2023-02-22T20:45:01.805Z,90.83
2023-02-22T20:55:23.167Z,90.92
2023-02-22T21:05:45.597Z,91.29
2023-02-22T21:16:07.912Z,91.74
2023-02-22T21:26:30.636Z,91.21
2023-02-22T21:36:53.255Z,91.67
2023-02-22T21:47:14.656Z,91.22
2023-02-22T21:57:36.095Z,91.32
2023-02-22T22:07:57.780Z,91.12
2023-02-22T22:18:19.147Z,90.94
2023-02-22T22:28:42.007Z,90.83
2023-02-22T22:39:12.755Z,90.87
2023-02-22T22:49:40.280Z,90.33
2023-02-22T23:00:21.726Z,90.40
2023-02-22T23:10:43.217Z,90.19
2023-02-22T23:21:05.450Z,89.94
2023-02-22T23:31:29.957Z,90.01
2023-02-22T23:41:51.783Z,90.14
2023-02-22T23:52:23.819Z,89.79
